sensor_id;sensor_type;location;lat;lon;timestamp;pressure;altitude;pressure_sealevel;temperature;humidity
28588;BME280;15787;49.662;10.162;2023-02-04T00:00:28;100232.53;;;6.41;94.00
28588;BME280;15787;49.662;10.162;2023-02-04T00:03:03;100232.53;;;6.41;93.43
28588;BME280;15787;49.662;10.162;2023-02-04T00:05:36;100222.22;;;6.41;93.12
28588;BME280;15787;49.662;10.162;2023-02-04T00:08:09;100227.31;;;6.35;92.59
28588;BME280;15787;49.662;10.162;2023-02-04T00:10:42;100231.94;;;6.28;93.90
28588;BME280;15787;49.662;10.162;2023-02-04T00:13:15;100229.53;;;6.26;93.28
28588;BME280;15787;49.662;10.162;2023-02-04T00:15:48;100221.59;;;6.25;93.11
28588;BME280;15787;49.662;10.162;2023-02-04T00:18:23;100222.91;;;6.08;94.04
28588;BME280;15787;49.662;10.162;2023-02-04T00:20:55;100217.38;;;6.08;93.87
28588;BME280;15787;49.662;10.162;2023-02-04T00:23:28;100210.25;;;6.07;94.82
28588;BME280;15787;49.662;10.162;2023-02-04T00:26:01;100223.13;;;5.96;94.95
28588;BME280;15787;49.662;10.162;2023-02-04T00:28:34;100221.19;;;6.00;95.66
28588;BME280;15787;49.662;10.162;2023-02-04T00:31:07;100221.34;;;6.07;95.20
28588;BME280;15787;49.662;10.162;2023-02-04T00:33:41;100216.44;;;5.97;95.01
28588;BME280;15787;49.662;10.162;2023-02-04T00:36:14;100216.28;;;5.90;95.42
28588;BME280;15787;49.662;10.162;2023-02-04T00:38:48;100226.06;;;5.84;95.74
28588;BME280;15787;49.662;10.162;2023-02-04T00:41:20;100224.59;;;5.90;95.58
28588;BME280;15787;49.662;10.162;2023-02-04T00:43:53;100214.91;;;5.81;95.73
28588;BME280;15787;49.662;10.162;2023-02-04T00:46:28;100220.09;;;5.82;95.80
28588;BME280;15787;49.662;10.162;2023-02-04T00:49:02;100219.72;;;5.84;95.66
28588;BME280;15787;49.662;10.162;2023-02-04T00:51:38;100226.75;;;5.78;95.02
28588;BME280;15787;49.662;10.162;2023-02-04T00:54:11;100246.94;;;5.78;94.95
28588;BME280;15787;49.662;10.162;2023-02-04T00:56:46;100251.50;;;5.67;94.63
28588;BME280;15787;49.662;10.162;2023-02-04T00:59:19;100268.63;;;5.72;94.86
28588;BME280;15787;49.662;10.162;2023-02-04T01:01:52;100276.53;;;5.93;94.75
28588;BME280;15787;49.662;10.162;2023-02-04T01:04:26;100282.97;;;5.78;94.00
28588;BME280;15787;49.662;10.162;2023-02-04T01:07:00;100292.63;;;5.65;93.67
28588;BME280;15787;49.662;10.162;2023-02-04T01:09:36;100301.16;;;5.75;93.60
28588;BME280;15787;49.662;10.162;2023-02-04T01:12:09;100312.16;;;5.72;94.08
28588;BME280;15787;49.662;10.162;2023-02-04T01:14:42;100312.72;;;5.58;93.78
28588;BME280;15787;49.662;10.162;2023-02-04T01:17:15;100305.59;;;5.38;95.00
28588;BME280;15787;49.662;10.162;2023-02-04T01:19:52;100314.56;;;5.32;94.96
28588;BME280;15787;49.662;10.162;2023-02-04T01:22:25;100316.31;;;5.40;94.35
28588;BME280;15787;49.662;10.162;2023-02-04T01:24:59;100319.75;;;5.33;94.18
28588;BME280;15787;49.662;10.162;2023-02-04T01:27:45;100327.50;;;5.47;93.88
28588;BME280;15787;49.662;10.162;2023-02-04T01:30:18;100331.38;;;5.42;92.94
28588;BME280;15787;49.662;10.162;2023-02-04T01:32:50;100332.63;;;5.45;92.56
28588;BME280;15787;49.662;10.162;2023-02-04T01:35:25;100342.56;;;5.46;91.68
28588;BME280;15787;49.662;10.162;2023-02-04T01:37:57;100348.81;;;5.43;91.91
28588;BME280;15787;49.662;10.162;2023-02-04T01:40:30;100332.75;;;5.52;91.64
28588;BME280;15787;49.662;10.162;2023-02-04T01:43:04;100334.25;;;5.46;91.92
28588;BME280;15787;49.662;10.162;2023-02-04T01:45:37;100346.25;;;5.53;91.86
28588;BME280;15787;49.662;10.162;2023-02-04T01:48:10;100345.06;;;5.54;92.13
28588;BME280;15787;49.662;10.162;2023-02-04T01:50:54;100341.56;;;5.57;92.23
28588;BME280;15787;49.662;10.162;2023-02-04T01:53:29;100338.59;;;5.47;92.27
28588;BME280;15787;49.662;10.162;2023-02-04T01:56:13;100330.28;;;5.47;92.69
28588;BME280;15787;49.662;10.162;2023-02-04T01:58:47;100338.25;;;5.48;93.45
28588;BME280;15787;49.662;10.162;2023-02-04T02:01:35;100338.25;;;5.48;94.12
28588;BME280;15787;49.662;10.162;2023-02-04T02:04:10;100331.44;;;5.65;93.64
28588;BME280;15787;49.662;10.162;2023-02-04T02:06:47;100330.28;;;5.66;93.04
28588;BME280;15787;49.662;10.162;2023-02-04T02:09:22;100335.09;;;5.69;93.59
28588;BME280;15787;49.662;10.162;2023-02-04T02:11:55;100327.72;;;5.77;93.17
28588;BME280;15787;49.662;10.162;2023-02-04T02:14:29;100334.25;;;5.88;92.29
28588;BME280;15787;49.662;10.162;2023-02-04T02:17:02;100325.28;;;5.94;91.81
28588;BME280;15787;49.662;10.162;2023-02-04T02:19:37;100326.13;;;5.98;91.46
28588;BME280;15787;49.662;10.162;2023-02-04T02:22:20;100336.50;;;6.01;91.02
28588;BME280;15787;49.662;10.162;2023-02-04T02:24:57;100338.84;;;5.99;90.72
28588;BME280;15787;49.662;10.162;2023-02-04T02:27:29;100345.53;;;5.98;90.37
28588;BME280;15787;49.662;10.162;2023-02-04T02:30:03;100347.97;;;6.00;90.32
28588;BME280;15787;49.662;10.162;2023-02-04T02:32:37;100352.69;;;5.99;90.93
28588;BME280;15787;49.662;10.162;2023-02-04T02:35:10;100362.19;;;5.98;90.70
28588;BME280;15787;49.662;10.162;2023-02-04T02:37:43;100363.84;;;6.03;89.98
28588;BME280;15787;49.662;10.162;2023-02-04T02:40:18;100370.88;;;5.97;90.66
28588;BME280;15787;49.662;10.162;2023-02-04T02:42:52;100370.16;;;6.00;90.85
28588;BME280;15787;49.662;10.162;2023-02-04T02:45:27;100379.13;;;5.93;91.35
28588;BME280;15787;49.662;10.162;2023-02-04T02:48:02;100384.47;;;6.05;91.47
28588;BME280;15787;49.662;10.162;2023-02-04T02:50:35;100388.44;;;6.04;92.25
28588;BME280;15787;49.662;10.162;2023-02-04T02:53:10;100396.56;;;5.94;92.58
28588;BME280;15787;49.662;10.162;2023-02-04T02:55:46;100388.91;;;5.87;92.84
28588;BME280;15787;49.662;10.162;2023-02-04T02:58:25;100381.16;;;5.96;93.70
28588;BME280;15787;49.662;10.162;2023-02-04T03:01:01;100381.03;;;5.89;93.98
28588;BME280;15787;49.662;10.162;2023-02-04T03:03:40;100387.19;;;5.83;93.82
28588;BME280;15787;49.662;10.162;2023-02-04T03:06:16;100389.34;;;5.89;94.22
28588;BME280;15787;49.662;10.162;2023-02-04T03:08:53;100385.47;;;5.74;94.59
28588;BME280;15787;49.662;10.162;2023-02-04T03:11:28;100384.16;;;5.68;94.59
28588;BME280;15787;49.662;10.162;2023-02-04T03:14:03;100383.34;;;5.68;95.00
28588;BME280;15787;49.662;10.162;2023-02-04T03:16:37;100384.28;;;5.75;93.58
28588;BME280;15787;49.662;10.162;2023-02-04T03:19:11;100384.97;;;5.69;93.13
28588;BME280;15787;49.662;10.162;2023-02-04T03:21:44;100392.19;;;5.73;92.90
28588;BME280;15787;49.662;10.162;2023-02-04T03:24:17;100396.56;;;5.74;92.53
28588;BME280;15787;49.662;10.162;2023-02-04T03:26:52;100393.00;;;5.74;92.73
28588;BME280;15787;49.662;10.162;2023-02-04T03:29:24;100390.72;;;5.60;93.43
28588;BME280;15787;49.662;10.162;2023-02-04T03:32:00;100394.75;;;5.63;92.99
28588;BME280;15787;49.662;10.162;2023-02-04T03:34:33;100394.81;;;5.47;93.16
28588;BME280;15787;49.662;10.162;2023-02-04T03:37:07;100400.06;;;5.52;93.18
28588;BME280;15787;49.662;10.162;2023-02-04T03:39:40;100396.47;;;5.52;92.78
28588;BME280;15787;49.662;10.162;2023-02-04T03:42:15;100408.03;;;5.54;92.14
28588;BME280;15787;49.662;10.162;2023-02-04T03:44:48;100409.47;;;5.48;91.74
28588;BME280;15787;49.662;10.162;2023-02-04T03:47:21;100396.03;;;5.50;91.17
28588;BME280;15787;49.662;10.162;2023-02-04T03:49:54;100408.59;;;5.44;91.24
28588;BME280;15787;49.662;10.162;2023-02-04T03:52:26;100427.47;;;5.38;90.87
28588;BME280;15787;49.662;10.162;2023-02-04T03:54:59;100435.50;;;5.43;90.52
28588;BME280;15787;49.662;10.162;2023-02-04T03:57:33;100443.81;;;5.43;90.90
28588;BME280;15787;49.662;10.162;2023-02-04T04:00:08;100458.91;;;5.46;89.88
28588;BME280;15787;49.662;10.162;2023-02-04T04:02:44;100457.81;;;5.50;88.99
28588;BME280;15787;49.662;10.162;2023-02-04T04:05:17;100466.31;;;5.42;89.39
28588;BME280;15787;49.662;10.162;2023-02-04T04:07:50;100468.75;;;5.43;89.29
28588;BME280;15787;49.662;10.162;2023-02-04T04:10:23;100471.94;;;5.45;89.42
28588;BME280;15787;49.662;10.162;2023-02-04T04:12:57;100471.56;;;5.47;88.68
28588;BME280;15787;49.662;10.162;2023-02-04T04:15:31;100492.94;;;5.46;89.46
28588;BME280;15787;49.662;10.162;2023-02-04T04:18:04;100502.78;;;5.44;89.85
28588;BME280;15787;49.662;10.162;2023-02-04T04:20:37;100505.38;;;5.37;89.70
28588;BME280;15787;49.662;10.162;2023-02-04T04:23:10;100503.78;;;5.36;90.40
28588;BME280;15787;49.662;10.162;2023-02-04T04:25:43;100513.78;;;5.40;90.68
28588;BME280;15787;49.662;10.162;2023-02-04T04:28:17;100521.56;;;5.35;90.71
28588;BME280;15787;49.662;10.162;2023-02-04T04:30:50;100523.91;;;5.33;91.49
28588;BME280;15787;49.662;10.162;2023-02-04T04:33:23;100517.09;;;5.30;91.57
28588;BME280;15787;49.662;10.162;2023-02-04T04:35:56;100527.38;;;5.30;91.82
28588;BME280;15787;49.662;10.162;2023-02-04T04:38:29;100520.41;;;5.36;91.51
28588;BME280;15787;49.662;10.162;2023-02-04T04:41:01;100528.09;;;5.27;91.42
28588;BME280;15787;49.662;10.162;2023-02-04T04:43:36;100521.16;;;5.17;91.72
28588;BME280;15787;49.662;10.162;2023-02-04T04:46:08;100519.47;;;5.13;91.19
28588;BME280;15787;49.662;10.162;2023-02-04T04:48:41;100519.56;;;5.16;92.07
28588;BME280;15787;49.662;10.162;2023-02-04T04:51:14;100522.41;;;4.88;91.91
28588;BME280;15787;49.662;10.162;2023-02-04T04:53:47;100515.72;;;4.89;92.01
28588;BME280;15787;49.662;10.162;2023-02-04T04:56:20;100513.94;;;4.81;92.64
28588;BME280;15787;49.662;10.162;2023-02-04T04:58:54;100519.28;;;4.74;92.67
28588;BME280;15787;49.662;10.162;2023-02-04T05:01:27;100520.19;;;4.78;92.45
28588;BME280;15787;49.662;10.162;2023-02-04T05:03:59;100517.06;;;4.80;92.28
28588;BME280;15787;49.662;10.162;2023-02-04T05:06:34;100525.72;;;4.78;92.38
28588;BME280;15787;49.662;10.162;2023-02-04T05:09:07;100520.38;;;4.85;92.48
28588;BME280;15787;49.662;10.162;2023-02-04T05:11:40;100531.41;;;5.01;91.98
28588;BME280;15787;49.662;10.162;2023-02-04T05:14:14;100534.19;;;5.01;91.65
28588;BME280;15787;49.662;10.162;2023-02-04T05:16:47;100541.06;;;5.07;92.02
28588;BME280;15787;49.662;10.162;2023-02-04T05:19:19;100542.97;;;5.03;91.18
28588;BME280;15787;49.662;10.162;2023-02-04T05:21:52;100541.50;;;5.09;90.99
28588;BME280;15787;49.662;10.162;2023-02-04T05:24:25;100546.72;;;5.10;91.44
28588;BME280;15787;49.662;10.162;2023-02-04T05:26:58;100552.69;;;5.13;91.17
28588;BME280;15787;49.662;10.162;2023-02-04T05:29:32;100552.59;;;5.09;91.39
28588;BME280;15787;49.662;10.162;2023-02-04T05:32:05;100568.75;;;5.07;91.26
28588;BME280;15787;49.662;10.162;2023-02-04T05:34:38;100563.06;;;5.16;91.04
28588;BME280;15787;49.662;10.162;2023-02-04T05:37:11;100565.13;;;5.19;90.40
28588;BME280;15787;49.662;10.162;2023-02-04T05:39:46;100571.69;;;5.14;90.89
28588;BME280;15787;49.662;10.162;2023-02-04T05:42:19;100587.06;;;5.11;90.51
28588;BME280;15787;49.662;10.162;2023-02-04T05:44:53;100594.94;;;5.25;90.73
28588;BME280;15787;49.662;10.162;2023-02-04T05:47:26;100600.84;;;5.24;90.79
28588;BME280;15787;49.662;10.162;2023-02-04T05:49:58;100604.75;;;5.23;90.60
28588;BME280;15787;49.662;10.162;2023-02-04T05:52:31;100616.56;;;5.35;90.06
28588;BME280;15787;49.662;10.162;2023-02-04T05:55:05;100602.31;;;5.37;90.00
28588;BME280;15787;49.662;10.162;2023-02-04T05:57:38;100612.69;;;5.08;89.85
28588;BME280;15787;49.662;10.162;2023-02-04T06:00:13;100610.72;;;5.09;90.15
28588;BME280;15787;49.662;10.162;2023-02-04T06:02:46;100609.31;;;5.15;90.52
28588;BME280;15787;49.662;10.162;2023-02-04T06:05:19;100607.16;;;5.24;90.79
28588;BME280;15787;49.662;10.162;2023-02-04T06:07:53;100621.28;;;5.19;89.94
28588;BME280;15787;49.662;10.162;2023-02-04T06:10:26;100632.63;;;5.14;90.55
28588;BME280;15787;49.662;10.162;2023-02-04T06:12:59;100641.63;;;5.11;90.48
28588;BME280;15787;49.662;10.162;2023-02-04T06:15:33;100640.59;;;5.16;91.00
28588;BME280;15787;49.662;10.162;2023-02-04T06:18:06;100651.44;;;5.08;91.44
28588;BME280;15787;49.662;10.162;2023-02-04T06:20:39;100646.03;;;5.12;91.34
28588;BME280;15787;49.662;10.162;2023-02-04T06:23:12;100654.31;;;5.12;91.93
28588;BME280;15787;49.662;10.162;2023-02-04T06:25:45;100662.72;;;5.00;91.26
28588;BME280;15787;49.662;10.162;2023-02-04T06:28:19;100666.31;;;5.16;91.28
28588;BME280;15787;49.662;10.162;2023-02-04T06:30:53;100663.72;;;5.23;90.76
28588;BME280;15787;49.662;10.162;2023-02-04T06:33:26;100680.53;;;5.30;90.41
28588;BME280;15787;49.662;10.162;2023-02-04T06:35:59;100690.16;;;5.21;91.08
28588;BME280;15787;49.662;10.162;2023-02-04T06:38:32;100684.16;;;5.03;91.80
28588;BME280;15787;49.662;10.162;2023-02-04T06:41:05;100678.63;;;5.03;93.13
28588;BME280;15787;49.662;10.162;2023-02-04T06:43:38;100682.09;;;5.00;94.25
28588;BME280;15787;49.662;10.162;2023-02-04T06:46:12;100687.25;;;5.01;94.44
28588;BME280;15787;49.662;10.162;2023-02-04T06:48:46;100696.00;;;4.88;95.89
28588;BME280;15787;49.662;10.162;2023-02-04T06:51:19;100704.31;;;5.03;95.53
28588;BME280;15787;49.662;10.162;2023-02-04T06:53:51;100699.59;;;5.04;95.73
28588;BME280;15787;49.662;10.162;2023-02-04T06:56:24;100708.16;;;4.99;96.35
28588;BME280;15787;49.662;10.162;2023-02-04T06:58:59;100708.84;;;4.96;96.70
28588;BME280;15787;49.662;10.162;2023-02-04T07:01:37;100722.44;;;5.01;96.46
28588;BME280;15787;49.662;10.162;2023-02-04T07:04:10;100717.28;;;4.99;96.83
28588;BME280;15787;49.662;10.162;2023-02-04T07:06:43;100727.72;;;5.06;96.75
28588;BME280;15787;49.662;10.162;2023-02-04T07:09:15;100721.72;;;5.16;97.12
28588;BME280;15787;49.662;10.162;2023-02-04T07:11:48;100728.59;;;4.94;97.20
28588;BME280;15787;49.662;10.162;2023-02-04T07:14:21;100735.53;;;4.88;98.29
28588;BME280;15787;49.662;10.162;2023-02-04T07:16:55;100739.41;;;4.99;98.50
28588;BME280;15787;49.662;10.162;2023-02-04T07:19:29;100743.69;;;4.97;98.75
28588;BME280;15787;49.662;10.162;2023-02-04T07:22:02;100745.78;;;5.00;98.38
28588;BME280;15787;49.662;10.162;2023-02-04T07:24:35;100748.16;;;5.01;98.19
28588;BME280;15787;49.662;10.162;2023-02-04T07:27:08;100753.97;;;4.96;98.11
28588;BME280;15787;49.662;10.162;2023-02-04T07:29:41;100762.81;;;5.02;98.56
28588;BME280;15787;49.662;10.162;2023-02-04T07:32:15;100764.34;;;5.43;98.56
28588;BME280;15787;49.662;10.162;2023-02-04T07:34:48;100768.28;;;5.42;97.84
28588;BME280;15787;49.662;10.162;2023-02-04T07:37:20;100775.81;;;5.13;97.75
28588;BME280;15787;49.662;10.162;2023-02-04T07:39:54;100774.81;;;5.34;97.77
28588;BME280;15787;49.662;10.162;2023-02-04T07:42:27;100785.06;;;5.33;97.85
28588;BME280;15787;49.662;10.162;2023-02-04T07:45:08;100782.53;;;5.56;97.76
28588;BME280;15787;49.662;10.162;2023-02-04T07:47:43;100784.91;;;5.42;97.53
28588;BME280;15787;49.662;10.162;2023-02-04T07:50:16;100781.44;;;5.60;97.19
28588;BME280;15787;49.662;10.162;2023-02-04T07:52:49;100782.88;;;5.70;96.53
28588;BME280;15787;49.662;10.162;2023-02-04T07:55:22;100798.50;;;5.47;95.63
28588;BME280;15787;49.662;10.162;2023-02-04T07:57:55;100795.97;;;5.26;96.01
28588;BME280;15787;49.662;10.162;2023-02-04T08:00:27;100799.25;;;5.32;96.28
28588;BME280;15787;49.662;10.162;2023-02-04T08:03:02;100799.06;;;5.25;95.86
28588;BME280;15787;49.662;10.162;2023-02-04T08:05:38;100803.28;;;5.19;95.47
28588;BME280;15787;49.662;10.162;2023-02-04T08:08:11;100808.38;;;5.04;95.39
28588;BME280;15787;49.662;10.162;2023-02-04T08:10:44;100813.88;;;5.17;94.53
28588;BME280;15787;49.662;10.162;2023-02-04T08:13:16;100816.53;;;4.85;94.24
28588;BME280;15787;49.662;10.162;2023-02-04T08:15:49;100825.69;;;5.01;93.67
28588;BME280;15787;49.662;10.162;2023-02-04T08:18:23;100827.59;;;4.85;93.28
28588;BME280;15787;49.662;10.162;2023-02-04T08:20:56;100837.94;;;5.00;93.24
28588;BME280;15787;49.662;10.162;2023-02-04T08:23:29;100840.97;;;4.95;93.67
28588;BME280;15787;49.662;10.162;2023-02-04T08:26:03;100830.13;;;4.90;93.76
28588;BME280;15787;49.662;10.162;2023-02-04T08:28:36;100838.91;;;4.80;93.84
28588;BME280;15787;49.662;10.162;2023-02-04T08:31:09;100838.06;;;4.92;93.65
28588;BME280;15787;49.662;10.162;2023-02-04T08:33:44;100861.75;;;5.17;93.00
28588;BME280;15787;49.662;10.162;2023-02-04T08:36:17;100872.66;;;5.38;91.65
28588;BME280;15787;49.662;10.162;2023-02-04T08:38:50;100872.91;;;4.93;91.99
28588;BME280;15787;49.662;10.162;2023-02-04T08:41:23;100879.19;;;5.18;92.25
28588;BME280;15787;49.662;10.162;2023-02-04T08:43:56;100880.16;;;5.37;91.40
28588;BME280;15787;49.662;10.162;2023-02-04T08:46:29;100880.06;;;5.34;91.63
28588;BME280;15787;49.662;10.162;2023-02-04T08:49:03;100886.84;;;4.96;91.57
28588;BME280;15787;49.662;10.162;2023-02-04T08:51:36;100882.16;;;5.25;91.98
28588;BME280;15787;49.662;10.162;2023-02-04T08:54:09;100886.88;;;5.36;91.71
28588;BME280;15787;49.662;10.162;2023-02-04T08:56:42;100895.38;;;5.43;91.14
28588;BME280;15787;49.662;10.162;2023-02-04T08:59:15;100900.22;;;5.46;90.13
28588;BME280;15787;49.662;10.162;2023-02-04T09:01:48;100903.13;;;5.38;90.00
28588;BME280;15787;49.662;10.162;2023-02-04T09:04:24;100915.19;;;5.18;89.98
28588;BME280;15787;49.662;10.162;2023-02-04T09:06:59;100920.50;;;5.23;89.99
28588;BME280;15787;49.662;10.162;2023-02-04T09:09:32;100933.19;;;5.63;89.47
28588;BME280;15787;49.662;10.162;2023-02-04T09:12:04;100926.56;;;5.40;88.96
28588;BME280;15787;49.662;10.162;2023-02-04T09:14:37;100929.47;;;5.59;87.91
28588;BME280;15787;49.662;10.162;2023-02-04T09:17:10;100942.81;;;5.69;88.68
28588;BME280;15787;49.662;10.162;2023-02-04T09:19:44;100942.81;;;5.69;88.43
28588;BME280;15787;49.662;10.162;2023-02-04T09:22:17;100945.19;;;5.95;86.91
28588;BME280;15787;49.662;10.162;2023-02-04T09:24:50;100954.47;;;5.87;86.56
28588;BME280;15787;49.662;10.162;2023-02-04T09:27:23;100950.22;;;6.05;86.46
28588;BME280;15787;49.662;10.162;2023-02-04T09:29:55;100959.91;;;6.27;85.69
28588;BME280;15787;49.662;10.162;2023-02-04T09:32:28;100954.91;;;6.32;84.29
28588;BME280;15787;49.662;10.162;2023-02-04T09:35:03;100954.72;;;6.41;82.90
28588;BME280;15787;49.662;10.162;2023-02-04T09:37:36;100962.16;;;6.84;83.01
28588;BME280;15787;49.662;10.162;2023-02-04T09:40:13;100969.25;;;6.50;81.51
28588;BME280;15787;49.662;10.162;2023-02-04T09:42:48;100989.22;;;6.71;81.33
28588;BME280;15787;49.662;10.162;2023-02-04T09:45:23;100982.88;;;6.71;80.91
28588;BME280;15787;49.662;10.162;2023-02-04T09:48:01;100991.22;;;6.12;78.75
28588;BME280;15787;49.662;10.162;2023-02-04T09:50:36;100992.31;;;6.38;79.90
28588;BME280;15787;49.662;10.162;2023-02-04T09:53:12;100995.34;;;5.90;79.12
28588;BME280;15787;49.662;10.162;2023-02-04T09:55:47;100996.41;;;6.13;79.10
28588;BME280;15787;49.662;10.162;2023-02-04T09:58:21;101000.63;;;6.23;79.49
28588;BME280;15787;49.662;10.162;2023-02-04T10:00:59;101001.72;;;5.79;78.42
28588;BME280;15787;49.662;10.162;2023-02-04T10:03:32;101003.63;;;6.46;79.37
28588;BME280;15787;49.662;10.162;2023-02-04T10:06:08;101007.91;;;6.27;78.46
28588;BME280;15787;49.662;10.162;2023-02-04T10:08:41;101007.31;;;6.06;78.10
28588;BME280;15787;49.662;10.162;2023-02-04T10:11:17;101020.00;;;5.67;77.94
28588;BME280;15787;49.662;10.162;2023-02-04T10:13:52;101006.75;;;5.61;78.08
28588;BME280;15787;49.662;10.162;2023-02-04T10:16:29;101005.72;;;5.93;78.60
28588;BME280;15787;49.662;10.162;2023-02-04T10:19:05;101004.84;;;5.77;77.71
28588;BME280;15787;49.662;10.162;2023-02-04T10:21:41;100994.53;;;5.50;77.46
28588;BME280;15787;49.662;10.162;2023-02-04T10:24:16;100999.00;;;5.54;77.56
28588;BME280;15787;49.662;10.162;2023-02-04T10:26:50;100996.06;;;6.30;77.73
28588;BME280;15787;49.662;10.162;2023-02-04T10:29:23;100996.06;;;6.30;77.88
28588;BME280;15787;49.662;10.162;2023-02-04T10:31:56;100998.06;;;6.30;77.03
28588;BME280;15787;49.662;10.162;2023-02-04T10:34:33;100995.72;;;6.32;75.84
28588;BME280;15787;49.662;10.162;2023-02-04T10:37:18;100996.63;;;6.52;76.50
28588;BME280;15787;49.662;10.162;2023-02-04T10:39:51;101007.81;;;6.40;76.32
28588;BME280;15787;49.662;10.162;2023-02-04T10:42:26;101010.91;;;6.66;76.18
28588;BME280;15787;49.662;10.162;2023-02-04T10:44:59;101007.72;;;6.36;74.17
28588;BME280;15787;49.662;10.162;2023-02-04T10:47:32;101013.94;;;6.61;73.74
28588;BME280;15787;49.662;10.162;2023-02-04T10:50:14;101020.28;;;6.18;73.17
28588;BME280;15787;49.662;10.162;2023-02-04T10:52:51;101022.44;;;6.09;73.27
28588;BME280;15787;49.662;10.162;2023-02-04T10:55:25;101021.41;;;6.01;73.90
28588;BME280;15787;49.662;10.162;2023-02-04T10:57:58;101030.50;;;6.73;75.06
28588;BME280;15787;49.662;10.162;2023-02-04T11:00:33;101025.38;;;6.44;74.13
28588;BME280;15787;49.662;10.162;2023-02-04T11:03:10;101025.22;;;6.52;73.65
28588;BME280;15787;49.662;10.162;2023-02-04T11:05:43;101023.16;;;6.65;74.22
28588;BME280;15787;49.662;10.162;2023-02-04T11:08:20;101019.75;;;6.87;72.99
28588;BME280;15787;49.662;10.162;2023-02-04T11:10:56;101015.53;;;7.24;73.68
28588;BME280;15787;49.662;10.162;2023-02-04T11:13:39;101012.22;;;6.72;73.46
28588;BME280;15787;49.662;10.162;2023-02-04T11:16:23;101026.13;;;6.72;73.35
28588;BME280;15787;49.662;10.162;2023-02-04T11:18:58;101017.19;;;7.44;73.15
28588;BME280;15787;49.662;10.162;2023-02-04T11:21:41;101024.16;;;7.04;72.42
28588;BME280;15787;49.662;10.162;2023-02-04T11:24:31;101028.63;;;6.92;72.74
28588;BME280;15787;49.662;10.162;2023-02-04T11:27:07;101029.81;;;6.76;72.14
28588;BME280;15787;49.662;10.162;2023-02-04T11:29:50;101039.66;;;6.73;72.80
28588;BME280;15787;49.662;10.162;2023-02-04T11:32:29;101026.28;;;6.94;73.32
28588;BME280;15787;49.662;10.162;2023-02-04T11:35:19;101035.06;;;6.50;71.62
28588;BME280;15787;49.662;10.162;2023-02-04T11:37:52;101032.19;;;6.62;72.40
28588;BME280;15787;49.662;10.162;2023-02-04T11:40:29;101035.81;;;6.78;72.49
28588;BME280;15787;49.662;10.162;2023-02-04T11:43:08;101041.44;;;7.13;71.15
28588;BME280;15787;49.662;10.162;2023-02-04T11:45:43;101043.75;;;6.79;73.59
28588;BME280;15787;49.662;10.162;2023-02-04T11:48:17;101046.19;;;6.65;73.60
28588;BME280;15787;49.662;10.162;2023-02-04T11:50:55;101038.75;;;6.85;72.64
28588;BME280;15787;49.662;10.162;2023-02-04T11:53:30;101036.53;;;6.90;73.54
28588;BME280;15787;49.662;10.162;2023-02-04T11:56:04;101040.19;;;6.79;73.47
28588;BME280;15787;49.662;10.162;2023-02-04T11:58:37;101040.69;;;6.69;73.07
28588;BME280;15787;49.662;10.162;2023-02-04T12:01:16;101030.81;;;7.49;72.72
28588;BME280;15787;49.662;10.162;2023-02-04T12:03:54;101036.41;;;7.03;73.39
28588;BME280;15787;49.662;10.162;2023-02-04T12:06:29;101041.13;;;7.49;73.28
28588;BME280;15787;49.662;10.162;2023-02-04T12:09:04;101046.09;;;7.24;72.68
28588;BME280;15787;49.662;10.162;2023-02-04T12:11:38;101048.50;;;7.10;73.13
28588;BME280;15787;49.662;10.162;2023-02-04T12:14:16;101043.28;;;7.40;72.39
28588;BME280;15787;49.662;10.162;2023-02-04T12:16:50;101048.25;;;7.15;73.64
28588;BME280;15787;49.662;10.162;2023-02-04T12:19:23;101039.47;;;7.13;73.73
28588;BME280;15787;49.662;10.162;2023-02-04T12:21:58;101049.63;;;6.47;74.38
28588;BME280;15787;49.662;10.162;2023-02-04T12:24:31;101048.00;;;6.89;75.52
28588;BME280;15787;49.662;10.162;2023-02-04T12:27:05;101031.13;;;7.29;74.07
28588;BME280;15787;49.662;10.162;2023-02-04T12:29:38;101036.97;;;7.58;74.07
28588;BME280;15787;49.662;10.162;2023-02-04T12:32:10;101037.16;;;8.23;73.22
28588;BME280;15787;49.662;10.162;2023-02-04T12:34:43;101031.56;;;8.61;70.45
28588;BME280;15787;49.662;10.162;2023-02-04T12:37:16;101038.41;;;8.25;68.97
28588;BME280;15787;49.662;10.162;2023-02-04T12:39:49;101050.16;;;7.81;68.43
28588;BME280;15787;49.662;10.162;2023-02-04T12:42:23;101056.28;;;7.71;68.21
28588;BME280;15787;49.662;10.162;2023-02-04T12:44:56;101046.59;;;7.80;69.27
28588;BME280;15787;49.662;10.162;2023-02-04T12:47:29;101045.31;;;7.58;67.77
28588;BME280;15787;49.662;10.162;2023-02-04T12:50:02;101046.94;;;7.79;69.35
28588;BME280;15787;49.662;10.162;2023-02-04T12:52:34;101047.16;;;7.20;68.80
28588;BME280;15787;49.662;10.162;2023-02-04T12:55:09;101053.09;;;7.53;70.95
28588;BME280;15787;49.662;10.162;2023-02-04T12:57:44;101057.59;;;7.57;69.80
28588;BME280;15787;49.662;10.162;2023-02-04T13:00:18;101056.53;;;7.81;69.74
28588;BME280;15787;49.662;10.162;2023-02-04T13:02:52;101050.81;;;7.93;69.89
28588;BME280;15787;49.662;10.162;2023-02-04T13:05:26;101038.44;;;7.91;68.78
28588;BME280;15787;49.662;10.162;2023-02-04T13:07:59;101044.13;;;8.13;70.03
28588;BME280;15787;49.662;10.162;2023-02-04T13:10:32;101045.00;;;7.63;67.42
28588;BME280;15787;49.662;10.162;2023-02-04T13:13:06;101027.13;;;7.99;68.04
28588;BME280;15787;49.662;10.162;2023-02-04T13:15:39;101041.16;;;8.06;68.50
28588;BME280;15787;49.662;10.162;2023-02-04T13:18:12;101039.50;;;7.48;69.28
28588;BME280;15787;49.662;10.162;2023-02-04T13:20:48;101035.31;;;7.92;68.39
28588;BME280;15787;49.662;10.162;2023-02-04T13:23:21;101045.09;;;7.67;67.93
28588;BME280;15787;49.662;10.162;2023-02-04T13:25:54;101047.88;;;7.67;68.37